Raleigh Durham International Airport
KRDU : now visible

Airfield :











YOU CAN JOIN US ON...

 
LOGIN :

Register | Disclaimer

   EN    FR    IT 

 









Legend :    VFR   Marginal VFR   IFR   Intensive IFR   Very Intensive IFR
Visi :
Ceiling :
>= 8 km
>= 3000ft
5 to 8 km
1000 to 3000 ft
1500m to 5 km
500 to 1000 ft
800 to 1500m
200 to 500 ft
< 800m
< 200 ft
Symbols :   Thunderstorms  Fog  Heavy snow  Heavy precipitations  Wind > 20 kt






- Airport Elevation : 435 ft
- IATA code : RDU


KRDU - Raleigh Durham International

CURRENT METAR :
  • 250751Z 05006KT 10SM BKN011 OVC019 18/17 A3014 RMK AO2 SLP201 T01830167

EXPIRED METARs :
  • 250651Z 05007KT 10SM BKN014 OVC019 19/17 A3012 RMK AO2 SLP196 T01890167
  • 250617Z 10009KT 10SM BKN014 OVC019 19/17 A3012 RMK AO2 T01940172
  • 250551Z 09008KT 10SM BKN022 20/18 A3011 RMK AO2 SLP192 T02000178 10239 20200 58010

TAF KRDU
Valid from the 25 at 08:00 until the 26 at 06:00 UTC


250829Z 2508/2606 05006KT P6SM SCT007 OVC010
TEMPO 2510/2514 5SM BR OVC007
FM251500 08007KT P6SM OVC017
FM252300 07005KT P6SM BKN022
KZDC FIR / North America



MET'MAP, your aeronautical weather chart ! - Copyright ORBIFLY December 2007 - Disclaimer

ORBIFLY MET'MAP TEAM :

Programming & Development : Alexandra Zaïnal
Concept & original design : Baudouin d'Aumeries
Assistance for programming : Marc-Olivier Méhu
Technical & hardware support : Manuel Goepfert

Contact : metmap@orbifly.com




SOURCES & CREDITS :

   NOAA       Earth
Advisory